sensor_id;sensor_type;location;lat;lon;timestamp;temperature;humidity
29007;DHT22;16104;48.642;9.008;2023-06-14T01:00:20;17.80;35.50
29007;DHT22;16104;48.642;9.008;2023-06-14T01:05:16;17.70;35.80
29007;DHT22;16104;48.642;9.008;2023-06-14T01:10:28;17.70;35.70
29007;DHT22;16104;48.642;9.008;2023-06-14T01:15:30;17.60;36.40
29007;DHT22;16104;48.642;9.008;2023-06-14T02:01:42;17.10;37.00
29007;DHT22;16104;48.642;9.008;2023-06-14T02:06:38;17.00;37.00
29007;DHT22;16104;48.642;9.008;2023-06-14T02:11:33;16.90;37.30
29007;DHT22;16104;48.642;9.008;2023-06-14T03:02:17;15.90;39.10
29007;DHT22;16104;48.642;9.008;2023-06-14T03:07:13;15.90;39.50
29007;DHT22;16104;48.642;9.008;2023-06-14T03:12:09;15.80;39.90
29007;DHT22;16104;48.642;9.008;2023-06-14T03:17:05;15.80;40.10
29007;DHT22;16104;48.642;9.008;2023-06-14T03:22:00;15.70;40.40
29007;DHT22;16104;48.642;9.008;2023-06-14T03:26:57;15.60;40.30
29007;DHT22;16104;48.642;9.008;2023-06-14T03:32:01;15.60;40.50
29007;DHT22;16104;48.642;9.008;2023-06-14T03:36:57;15.50;41.60
29007;DHT22;16104;48.642;9.008;2023-06-14T03:41:52;15.40;41.20
29007;DHT22;16104;48.642;9.008;2023-06-14T03:46:48;15.30;41.30
29007;DHT22;16104;48.642;9.008;2023-06-14T03:51:44;15.30;41.50
29007;DHT22;16104;48.642;9.008;2023-06-14T03:56:40;15.20;41.30
29007;DHT22;16104;48.642;9.008;2023-06-14T04:01:35;15.20;41.60
29007;DHT22;16104;48.642;9.008;2023-06-14T04:06:31;15.10;41.80
29007;DHT22;16104;48.642;9.008;2023-06-14T04:11:30;15.10;42.20
29007;DHT22;16104;48.642;9.008;2023-06-14T04:16:26;15.10;42.10
29007;DHT22;16104;48.642;9.008;2023-06-14T04:21:22;15.10;42.60
29007;DHT22;16104;48.642;9.008;2023-06-14T04:26:18;15.10;42.50
29007;DHT22;16104;48.642;9.008;2023-06-14T04:31:15;15.10;42.80
29007;DHT22;16104;48.642;9.008;2023-06-14T04:36:12;15.10;42.70
29007;DHT22;16104;48.642;9.008;2023-06-14T04:41:08;15.10;43.10
29007;DHT22;16104;48.642;9.008;2023-06-14T04:46:07;15.20;43.20
29007;DHT22;16104;48.642;9.008;2023-06-14T04:51:06;15.20;43.50
29007;DHT22;16104;48.642;9.008;2023-06-14T04:56:02;15.30;43.80
29007;DHT22;16104;48.642;9.008;2023-06-14T05:00:59;15.30;44.10
29007;DHT22;16104;48.642;9.008;2023-06-14T05:05:55;15.30;43.80
29007;DHT22;16104;48.642;9.008;2023-06-14T05:10:50;15.40;44.40
29007;DHT22;16104;48.642;9.008;2023-06-14T05:15:46;15.50;44.60
29007;DHT22;16104;48.642;9.008;2023-06-14T05:20:42;15.60;44.50
29007;DHT22;16104;48.642;9.008;2023-06-14T05:25:38;15.70;44.40
29007;DHT22;16104;48.642;9.008;2023-06-14T05:30:33;15.90;44.20
29007;DHT22;16104;48.642;9.008;2023-06-14T05:35:29;16.10;44.80
29007;DHT22;16104;48.642;9.008;2023-06-14T05:40:24;16.30;44.50
29007;DHT22;16104;48.642;9.008;2023-06-14T05:45:20;16.60;44.40
29007;DHT22;16104;48.642;9.008;2023-06-14T05:50:15;16.80;44.30
29007;DHT22;16104;48.642;9.008;2023-06-14T05:55:11;17.10;44.50
29007;DHT22;16104;48.642;9.008;2023-06-14T06:00:08;17.30;43.70
29007;DHT22;16104;48.642;9.008;2023-06-14T06:05:09;17.70;43.40
29007;DHT22;16104;48.642;9.008;2023-06-14T06:10:06;18.00;42.70
29007;DHT22;16104;48.642;9.008;2023-06-14T06:15:01;18.30;42.50
29007;DHT22;16104;48.642;9.008;2023-06-14T06:19:58;18.60;42.80
29007;DHT22;16104;48.642;9.008;2023-06-14T06:24:53;18.90;41.70
29007;DHT22;16104;48.642;9.008;2023-06-14T06:29:49;19.10;41.20
29007;DHT22;16104;48.642;9.008;2023-06-14T06:34:45;19.40;40.60
29007;DHT22;16104;48.642;9.008;2023-06-14T06:39:40;19.60;40.30
29007;DHT22;16104;48.642;9.008;2023-06-14T06:44:36;19.90;40.00
29007;DHT22;16104;48.642;9.008;2023-06-14T06:49:31;20.10;39.90
29007;DHT22;16104;48.642;9.008;2023-06-14T06:54:27;20.40;39.90
29007;DHT22;16104;48.642;9.008;2023-06-14T06:59:23;20.60;39.80
29007;DHT22;16104;48.642;9.008;2023-06-14T07:04:18;20.90;39.20
29007;DHT22;16104;48.642;9.008;2023-06-14T07:09:14;21.10;39.10
29007;DHT22;16104;48.642;9.008;2023-06-14T07:14:11;21.40;39.10
29007;DHT22;16104;48.642;9.008;2023-06-14T07:19:07;21.60;38.80
29007;DHT22;16104;48.642;9.008;2023-06-14T07:24:05;21.80;38.50
29007;DHT22;16104;48.642;9.008;2023-06-14T07:29:02;22.10;38.20
29007;DHT22;16104;48.642;9.008;2023-06-14T07:33:58;22.30;38.00
29007;DHT22;16104;48.642;9.008;2023-06-14T07:38:53;22.50;37.40
29007;DHT22;16104;48.642;9.008;2023-06-14T07:43:49;22.80;36.40
29007;DHT22;16104;48.642;9.008;2023-06-14T07:48:45;22.90;35.90
29007;DHT22;16104;48.642;9.008;2023-06-14T07:53:40;23.20;35.50
29007;DHT22;16104;48.642;9.008;2023-06-14T07:58:36;23.40;35.00
29007;DHT22;16104;48.642;9.008;2023-06-14T08:03:32;23.70;35.00
29007;DHT22;16104;48.642;9.008;2023-06-14T08:08:28;23.90;34.20
29007;DHT22;16104;48.642;9.008;2023-06-14T08:13:23;24.10;34.80
29007;DHT22;16104;48.642;9.008;2023-06-14T08:18:19;24.30;33.40
29007;DHT22;16104;48.642;9.008;2023-06-14T08:23:15;24.50;33.40
29007;DHT22;16104;48.642;9.008;2023-06-14T08:28:14;24.70;32.90
29007;DHT22;16104;48.642;9.008;2023-06-14T08:33:09;24.90;32.70
29007;DHT22;16104;48.642;9.008;2023-06-14T08:38:05;25.00;32.10
29007;DHT22;16104;48.642;9.008;2023-06-14T08:43:00;25.20;32.10
29007;DHT22;16104;48.642;9.008;2023-06-14T08:47:56;25.30;31.70
29007;DHT22;16104;48.642;9.008;2023-06-14T08:52:57;25.60;31.90
29007;DHT22;16104;48.642;9.008;2023-06-14T08:57:56;25.70;31.30
29007;DHT22;16104;48.642;9.008;2023-06-14T09:02:55;25.90;30.80
29007;DHT22;16104;48.642;9.008;2023-06-14T09:07:54;26.10;30.60
29007;DHT22;16104;48.642;9.008;2023-06-14T09:12:56;26.20;30.90
29007;DHT22;16104;48.642;9.008;2023-06-14T09:17:51;26.40;30.40
29007;DHT22;16104;48.642;9.008;2023-06-14T09:22:46;26.50;30.30
29007;DHT22;16104;48.642;9.008;2023-06-14T09:27:42;26.70;29.60
29007;DHT22;16104;48.642;9.008;2023-06-14T09:32:39;26.80;29.60
29007;DHT22;16104;48.642;9.008;2023-06-14T09:37:35;27.00;29.80
29007;DHT22;16104;48.642;9.008;2023-06-14T09:42:32;27.10;29.60
29007;DHT22;16104;48.642;9.008;2023-06-14T09:47:30;27.30;29.40
29007;DHT22;16104;48.642;9.008;2023-06-14T09:52:27;27.40;28.90
29007;DHT22;16104;48.642;9.008;2023-06-14T09:57:23;27.50;28.80
29007;DHT22;16104;48.642;9.008;2023-06-14T10:02:25;27.60;29.30
29007;DHT22;16104;48.642;9.008;2023-06-14T10:07:22;27.80;27.80
29007;DHT22;16104;48.642;9.008;2023-06-14T10:12:17;28.10;28.10
29007;DHT22;16104;48.642;9.008;2023-06-14T10:22:40;28.60;27.40
29007;DHT22;16104;48.642;9.008;2023-06-14T10:27:38;28.80;27.10
29007;DHT22;16104;48.642;9.008;2023-06-14T10:32:33;29.00;26.90
29007;DHT22;16104;48.642;9.008;2023-06-14T10:37:29;29.00;26.70
29007;DHT22;16104;48.642;9.008;2023-06-14T10:42:32;28.90;26.30
29007;DHT22;16104;48.642;9.008;2023-06-14T10:47:34;28.80;26.20
29007;DHT22;16104;48.642;9.008;2023-06-14T10:52:33;28.80;26.20
29007;DHT22;16104;48.642;9.008;2023-06-14T10:57:31;29.00;28.20
29007;DHT22;16104;48.642;9.008;2023-06-14T11:02:47;29.20;26.50
29007;DHT22;16104;48.642;9.008;2023-06-14T11:08:01;29.30;26.20
29007;DHT22;16104;48.642;9.008;2023-06-14T11:13:00;29.20;25.00
29007;DHT22;16104;48.642;9.008;2023-06-14T11:17:55;29.10;26.00
29007;DHT22;16104;48.642;9.008;2023-06-14T11:22:53;29.10;25.90
29007;DHT22;16104;48.642;9.008;2023-06-14T11:27:50;29.20;26.10
29007;DHT22;16104;48.642;9.008;2023-06-14T11:32:47;29.30;25.70
29007;DHT22;16104;48.642;9.008;2023-06-14T11:37:43;29.20;25.80
29007;DHT22;16104;48.642;9.008;2023-06-14T11:42:43;29.20;25.90
29007;DHT22;16104;48.642;9.008;2023-06-14T11:47:39;29.40;25.90
29007;DHT22;16104;48.642;9.008;2023-06-14T11:52:36;29.70;25.70
29007;DHT22;16104;48.642;9.008;2023-06-14T11:57:35;30.00;25.60
29007;DHT22;16104;48.642;9.008;2023-06-14T12:02:31;30.10;24.80
29007;DHT22;16104;48.642;9.008;2023-06-14T12:07:27;30.10;24.80
29007;DHT22;16104;48.642;9.008;2023-06-14T12:12:24;30.00;25.10
29007;DHT22;16104;48.642;9.008;2023-06-14T12:17:20;30.00;25.40
29007;DHT22;16104;48.642;9.008;2023-06-14T12:22:17;30.00;25.30
29007;DHT22;16104;48.642;9.008;2023-06-14T12:27:12;30.10;25.50
29007;DHT22;16104;48.642;9.008;2023-06-14T12:32:11;30.20;24.90
29007;DHT22;16104;48.642;9.008;2023-06-14T12:37:06;30.20;24.70
29007;DHT22;16104;48.642;9.008;2023-06-14T12:42:02;30.30;25.40
29007;DHT22;16104;48.642;9.008;2023-06-14T12:46:59;30.40;24.70
29007;DHT22;16104;48.642;9.008;2023-06-14T12:51:55;30.50;24.60
29007;DHT22;16104;48.642;9.008;2023-06-14T12:56:50;30.70;24.30
29007;DHT22;16104;48.642;9.008;2023-06-14T13:01:47;30.70;24.20
29007;DHT22;16104;48.642;9.008;2023-06-14T13:06:45;30.60;24.20
29007;DHT22;16104;48.642;9.008;2023-06-14T13:11:41;30.60;24.60
29007;DHT22;16104;48.642;9.008;2023-06-14T13:16:36;30.70;24.90
29007;DHT22;16104;48.642;9.008;2023-06-14T13:21:32;30.80;24.90
29007;DHT22;16104;48.642;9.008;2023-06-14T13:26:27;31.10;24.40
29007;DHT22;16104;48.642;9.008;2023-06-14T13:31:23;31.40;24.20
29007;DHT22;16104;48.642;9.008;2023-06-14T13:36:18;31.50;23.80
29007;DHT22;16104;48.642;9.008;2023-06-14T13:41:14;31.40;23.60
29007;DHT22;16104;48.642;9.008;2023-06-14T13:46:09;31.40;24.00
29007;DHT22;16104;48.642;9.008;2023-06-14T13:51:05;31.50;23.90
29007;DHT22;16104;48.642;9.008;2023-06-14T13:56:00;31.70;23.40
29007;DHT22;16104;48.642;9.008;2023-06-14T14:00:56;31.80;23.20
29007;DHT22;16104;48.642;9.008;2023-06-14T14:05:54;31.70;23.20
29007;DHT22;16104;48.642;9.008;2023-06-14T14:10:50;31.80;23.20
29007;DHT22;16104;48.642;9.008;2023-06-14T14:15:45;31.70;23.00
29007;DHT22;16104;48.642;9.008;2023-06-14T14:20:41;31.70;22.90
29007;DHT22;16104;48.642;9.008;2023-06-14T14:25:36;31.80;23.00
29007;DHT22;16104;48.642;9.008;2023-06-14T14:30:32;31.90;22.80
29007;DHT22;16104;48.642;9.008;2023-06-14T14:35:28;32.00;22.90
29007;DHT22;16104;48.642;9.008;2023-06-14T14:40:26;32.00;22.40
29007;DHT22;16104;48.642;9.008;2023-06-14T14:45:21;31.90;22.70
29007;DHT22;16104;48.642;9.008;2023-06-14T14:50:17;31.80;22.70
29007;DHT22;16104;48.642;9.008;2023-06-14T14:55:13;31.80;23.10
29007;DHT22;16104;48.642;9.008;2023-06-14T15:00:09;31.70;23.10
29007;DHT22;16104;48.642;9.008;2023-06-14T15:05:05;31.70;22.90
29007;DHT22;16104;48.642;9.008;2023-06-14T15:10:01;31.80;22.60
29007;DHT22;16104;48.642;9.008;2023-06-14T15:14:57;31.80;22.40
29007;DHT22;16104;48.642;9.008;2023-06-14T15:19:52;31.70;22.50
29007;DHT22;16104;48.642;9.008;2023-06-14T15:24:47;31.60;23.10
29007;DHT22;16104;48.642;9.008;2023-06-14T15:29:44;31.70;22.90
29007;DHT22;16104;48.642;9.008;2023-06-14T15:34:39;31.80;23.20
29007;DHT22;16104;48.642;9.008;2023-06-14T15:39:35;31.90;22.70
29007;DHT22;16104;48.642;9.008;2023-06-14T15:44:31;31.80;22.50
29007;DHT22;16104;48.642;9.008;2023-06-14T15:49:26;31.70;22.70
29007;DHT22;16104;48.642;9.008;2023-06-14T15:54:22;31.60;23.00
29007;DHT22;16104;48.642;9.008;2023-06-14T15:59:17;31.40;23.00
29007;DHT22;16104;48.642;9.008;2023-06-14T16:04:13;31.40;23.30
29007;DHT22;16104;48.642;9.008;2023-06-14T16:09:08;31.30;23.00
29007;DHT22;16104;48.642;9.008;2023-06-14T16:14:04;31.30;23.20
29007;DHT22;16104;48.642;9.008;2023-06-14T16:18:59;31.20;23.20
29007;DHT22;16104;48.642;9.008;2023-06-14T16:23:55;31.30;23.60
29007;DHT22;16104;48.642;9.008;2023-06-14T16:28:50;31.40;23.00
29007;DHT22;16104;48.642;9.008;2023-06-14T16:33:46;31.40;22.90
29007;DHT22;16104;48.642;9.008;2023-06-14T16:38:42;31.50;23.20
29007;DHT22;16104;48.642;9.008;2023-06-14T16:43:37;31.50;23.20
29007;DHT22;16104;48.642;9.008;2023-06-14T16:48:33;31.40;22.90
29007;DHT22;16104;48.642;9.008;2023-06-14T16:53:29;31.40;23.00
29007;DHT22;16104;48.642;9.008;2023-06-14T16:58:24;31.30;23.00
29007;DHT22;16104;48.642;9.008;2023-06-14T17:03:20;31.40;23.20
29007;DHT22;16104;48.642;9.008;2023-06-14T17:08:15;31.20;23.00
29007;DHT22;16104;48.642;9.008;2023-06-14T17:13:11;31.20;23.10
29007;DHT22;16104;48.642;9.008;2023-06-14T17:18:06;31.20;23.10
29007;DHT22;16104;48.642;9.008;2023-06-14T17:23:02;31.20;23.30
29007;DHT22;16104;48.642;9.008;2023-06-14T17:27:57;31.20;23.30
29007;DHT22;16104;48.642;9.008;2023-06-14T17:32:53;31.20;23.30
29007;DHT22;16104;48.642;9.008;2023-06-14T17:37:50;31.20;23.30
29007;DHT22;16104;48.642;9.008;2023-06-14T17:42:45;31.20;22.90
29007;DHT22;16104;48.642;9.008;2023-06-14T17:47:41;31.10;22.80
29007;DHT22;16104;48.642;9.008;2023-06-14T17:52:36;31.00;22.80
29007;DHT22;16104;48.642;9.008;2023-06-14T17:57:32;30.80;23.10
29007;DHT22;16104;48.642;9.008;2023-06-14T18:02:27;30.60;23.30
29007;DHT22;16104;48.642;9.008;2023-06-14T18:07:24;30.40;23.60
29007;DHT22;16104;48.642;9.008;2023-06-14T18:12:20;30.10;23.80
29007;DHT22;16104;48.642;9.008;2023-06-14T18:17:15;29.80;24.00
29007;DHT22;16104;48.642;9.008;2023-06-14T18:22:11;29.50;24.30
29007;DHT22;16104;48.642;9.008;2023-06-14T18:27:07;29.20;24.40
29007;DHT22;16104;48.642;9.008;2023-06-14T18:32:06;28.90;24.70
29007;DHT22;16104;48.642;9.008;2023-06-14T18:37:02;28.70;24.90
29007;DHT22;16104;48.642;9.008;2023-06-14T18:41:57;28.50;25.30
29007;DHT22;16104;48.642;9.008;2023-06-14T18:46:54;28.20;25.40
29007;DHT22;16104;48.642;9.008;2023-06-14T18:51:49;28.00;25.70
29007;DHT22;16104;48.642;9.008;2023-06-14T18:56:45;27.70;25.90
29007;DHT22;16104;48.642;9.008;2023-06-14T19:01:41;27.40;26.10
29007;DHT22;16104;48.642;9.008;2023-06-14T19:06:36;27.20;26.50
29007;DHT22;16104;48.642;9.008;2023-06-14T19:11:33;27.00;26.60
29007;DHT22;16104;48.642;9.008;2023-06-14T19:16:29;26.70;26.70
29007;DHT22;16104;48.642;9.008;2023-06-14T19:21:24;26.50;27.10
29007;DHT22;16104;48.642;9.008;2023-06-14T19:26:20;26.30;27.30
29007;DHT22;16104;48.642;9.008;2023-06-14T19:31:15;26.10;27.70
29007;DHT22;16104;48.642;9.008;2023-06-14T19:36:11;25.90;27.80
29007;DHT22;16104;48.642;9.008;2023-06-14T19:41:07;25.70;28.00
29007;DHT22;16104;48.642;9.008;2023-06-14T19:46:02;25.40;28.30
29007;DHT22;16104;48.642;9.008;2023-06-14T19:50:58;25.20;28.30
29007;DHT22;16104;48.642;9.008;2023-06-14T19:55:54;25.00;28.60
29007;DHT22;16104;48.642;9.008;2023-06-14T20:00:49;24.90;28.80
29007;DHT22;16104;48.642;9.008;2023-06-14T20:05:44;24.60;29.00
29007;DHT22;16104;48.642;9.008;2023-06-14T20:10:40;24.40;29.20
29007;DHT22;16104;48.642;9.008;2023-06-14T20:15:35;24.20;29.40
29007;DHT22;16104;48.642;9.008;2023-06-14T20:20:31;24.10;29.70
29007;DHT22;16104;48.642;9.008;2023-06-14T20:25:27;24.00;30.00
29007;DHT22;16104;48.642;9.008;2023-06-14T20:30:22;23.80;30.20
29007;DHT22;16104;48.642;9.008;2023-06-14T20:35:18;23.70;30.20
29007;DHT22;16104;48.642;9.008;2023-06-14T20:40:21;23.60;30.40
29007;DHT22;16104;48.642;9.008;2023-06-14T20:45:17;23.50;31.10
29007;DHT22;16104;48.642;9.008;2023-06-14T20:50:13;23.30;31.20
29007;DHT22;16104;48.642;9.008;2023-06-14T20:55:08;23.20;31.10
29007;DHT22;16104;48.642;9.008;2023-06-14T21:00:04;23.10;31.20
29007;DHT22;16104;48.642;9.008;2023-06-14T21:05:08;23.00;31.50
29007;DHT22;16104;48.642;9.008;2023-06-14T21:10:04;22.80;31.80
29007;DHT22;16104;48.642;9.008;2023-06-14T21:15:00;22.70;31.70
29007;DHT22;16104;48.642;9.008;2023-06-14T21:19:56;22.60;31.80
29007;DHT22;16104;48.642;9.008;2023-06-14T21:24:51;22.50;32.20
29007;DHT22;16104;48.642;9.008;2023-06-14T21:29:47;22.40;32.30
29007;DHT22;16104;48.642;9.008;2023-06-14T21:34:44;22.30;32.30
29007;DHT22;16104;48.642;9.008;2023-06-14T21:39:40;22.20;32.50
29007;DHT22;16104;48.642;9.008;2023-06-14T21:44:40;22.10;32.70
29007;DHT22;16104;48.642;9.008;2023-06-14T21:49:43;22.00;33.30
29007;DHT22;16104;48.642;9.008;2023-06-14T21:54:42;22.00;33.10
29007;DHT22;16104;48.642;9.008;2023-06-14T21:59:38;21.90;33.30
29007;DHT22;16104;48.642;9.008;2023-06-14T22:04:33;21.90;33.40
29007;DHT22;16104;48.642;9.008;2023-06-14T22:09:30;21.80;34.10
29007;DHT22;16104;48.642;9.008;2023-06-14T22:14:26;21.70;34.50
29007;DHT22;16104;48.642;9.008;2023-06-14T22:19:26;21.60;34.70
29007;DHT22;16104;48.642;9.008;2023-06-14T22:24:25;21.50;35.00
29007;DHT22;16104;48.642;9.008;2023-06-14T22:29:20;21.40;35.50
29007;DHT22;16104;48.642;9.008;2023-06-14T22:34:18;21.30;35.50
29007;DHT22;16104;48.642;9.008;2023-06-14T22:39:14;21.20;36.00
29007;DHT22;16104;48.642;9.008;2023-06-14T22:44:09;21.10;35.90
29007;DHT22;16104;48.642;9.008;2023-06-14T22:49:06;21.00;36.10
29007;DHT22;16104;48.642;9.008;2023-06-14T22:54:02;20.90;36.20
29007;DHT22;16104;48.642;9.008;2023-06-14T22:58:58;20.80;36.30
29007;DHT22;16104;48.642;9.008;2023-06-14T23:03:57;20.70;36.80
29007;DHT22;16104;48.642;9.008;2023-06-14T23:08:53;20.60;36.80
29007;DHT22;16104;48.642;9.008;2023-06-14T23:13:49;20.40;37.00
29007;DHT22;16104;48.642;9.008;2023-06-14T23:18:51;20.30;37.30
29007;DHT22;16104;48.642;9.008;2023-06-14T23:23:47;20.30;37.60
29007;DHT22;16104;48.642;9.008;2023-06-14T23:28:43;20.10;38.30
29007;DHT22;16104;48.642;9.008;2023-06-14T23:33:40;20.10;38.00
29007;DHT22;16104;48.642;9.008;2023-06-14T23:38:36;20.00;38.10
29007;DHT22;16104;48.642;9.008;2023-06-14T23:43:42;19.90;38.40
29007;DHT22;16104;48.642;9.008;2023-06-14T23:48:38;19.80;38.70
29007;DHT22;16104;48.642;9.008;2023-06-14T23:53:34;19.70;39.10
29007;DHT22;16104;48.642;9.008;2023-06-14T23:58:30;19.60;39.40
